»·PEaware :: N696FS KPMD-KSMX

N696FS :: KPMD-KSMX

FLIGHT INFORMATION

Flight Status: Arrived
Operator: Privately registered:
United States
More flights under this callsign
Pilot: Tom K. (21084)
Aircraft: Cessna 525C Citation CJ4
(C25C)
More flights by this aircraft type
Origin: KPMD Palmdale AF Plant 42
United States
Destination: KSMX Santa Maria Pub/Capt Hancock
United States
More flights between these airports :: More routes between these airports
Route: PMD REYES
File this flight plan on PilotEdge
Remarks:
Altitude:
(Current/Filed)
22,000ft
Speed:
(Current/Filed)
360kts
Departed: 29-Jul-21 08:35 PM
Arrived: 29-Jul-21 09:16 PM
Distance/Time
Traveled:
118nm/0:41
Distance/Time
To Go:
Arrived

Flight Plot

Page will automatically refresh every two minutes.

Flight plan parsing failed; only flown route is shown


Map Options




Map Legend


Flown Route
Filed Route
Departure Airport
Arrival Airport
Navaid (VOR, NDB)
Fix

Horizontal Profiles

Position Reports

Time Latitude Longitude Heading Altitude Ground
Speed
29-Jul-21 19:58 34.635867 -118.095819 88 2517ft 0kts
29-Jul-21 19:59 34.635867 -118.095819 88 2517ft 0kts
29-Jul-21 20:00 34.635867 -118.095819 88 2517ft 0kts
29-Jul-21 20:01 34.635867 -118.095819 88 2517ft 0kts
29-Jul-21 20:02 34.635867 -118.095819 88 2517ft 0kts
29-Jul-21 20:03 34.635867 -118.095819 88 2517ft 0kts
29-Jul-21 20:04 34.635867 -118.095819 88 2517ft 0kts
29-Jul-21 20:05 34.635867 -118.095819 88 2517ft 0kts
29-Jul-21 20:06 34.635867 -118.095819 88 2517ft 0kts
29-Jul-21 20:07 34.635867 -118.095819 88 2517ft 0kts
29-Jul-21 20:08 34.635867 -118.095819 88 2517ft 0kts
29-Jul-21 20:09 34.635867 -118.095819 88 2517ft 0kts
29-Jul-21 20:10 34.635867 -118.095819 88 2517ft 0kts
29-Jul-21 20:11 34.635867 -118.095819 88 2517ft 0kts
29-Jul-21 20:12 34.635867 -118.095819 88 2517ft 0kts
29-Jul-21 20:13 34.635867 -118.095819 88 2517ft 0kts
29-Jul-21 20:14 34.635867 -118.095819 88 2517ft 0kts
29-Jul-21 20:15 34.635867 -118.095819 88 2517ft 0kts
29-Jul-21 20:16 34.635867 -118.095819 88 2517ft 0kts
29-Jul-21 20:17 34.635867 -118.095819 88 2517ft 0kts
29-Jul-21 20:18 34.635867 -118.095819 88 2517ft 0kts
29-Jul-21 20:19 34.635867 -118.095819 88 2517ft 0kts
29-Jul-21 20:20 34.635867 -118.095819 88 2517ft 0kts
29-Jul-21 20:21 34.635867 -118.095819 88 2517ft 0kts
29-Jul-21 20:22 34.635867 -118.095819 88 2517ft 0kts
29-Jul-21 20:23 34.635682 -118.095855 263 2518ft 5kts
29-Jul-21 20:24 34.635572 -118.096170 195 2519ft 0kts
29-Jul-21 20:25 34.635572 -118.096170 195 2519ft 0kts
29-Jul-21 20:26 34.635572 -118.096170 195 2519ft 0kts
29-Jul-21 20:27 34.635572 -118.096170 195 2519ft 0kts
29-Jul-21 20:28 34.635572 -118.096170 195 2519ft 0kts
29-Jul-21 20:29 34.635572 -118.096170 195 2519ft 0kts
29-Jul-21 20:30 34.635572 -118.096170 195 2519ft 0kts
29-Jul-21 20:31 34.635572 -118.096170 195 2519ft 0kts
29-Jul-21 20:32 34.635572 -118.096170 195 2519ft 0kts
29-Jul-21 20:33 34.635543 -118.096172 177 2519ft 1kts
29-Jul-21 20:34 34.634735 -118.089867 86 2515ft 41kts
29-Jul-21 20:35 34.635620 -118.073835 86 2499ft 49kts
29-Jul-21 20:36 34.635578 -118.067246 224 2505ft 11kts
29-Jul-21 20:37 34.634409 -118.068981 230 2505ft 0kts
29-Jul-21 20:38 34.634409 -118.068981 230 2505ft 0kts
29-Jul-21 20:39 34.634409 -118.068981 230 2505ft 0kts
29-Jul-21 20:40 34.632767 -118.071654 263 2501ft 6kts
29-Jul-21 20:41 34.632217 -118.083337 264 2517ft 130kts
29-Jul-21 20:42 34.632640 -118.151629 272 4647ft 224kts
29-Jul-21 20:43 34.636431 -118.221649 269 7615ft 212kts
29-Jul-21 20:44 34.638382 -118.303694 271 10644ft 271kts
29-Jul-21 20:45 34.641353 -118.401511 271 13706ft 292kts
29-Jul-21 20:46 34.644042 -118.500932 269 16460ft 299kts
29-Jul-21 20:47 34.646434 -118.608634 268 19461ft 333kts
29-Jul-21 20:48 34.649110 -118.723506 268 22524ft 345kts
29-Jul-21 20:49 34.651948 -118.844000 268 23414ft 371kts
29-Jul-21 20:50 34.655059 -118.973385 272 23442ft 392kts
29-Jul-21 20:51 34.658174 -119.106012 271 23485ft 383kts
29-Jul-21 20:52 34.662332 -119.232000 271 23456ft 369kts
29-Jul-21 20:53 34.669817 -119.355603 271 22257ft 366kts
29-Jul-21 20:54 34.677518 -119.478395 276 20279ft 362kts
29-Jul-21 20:55 34.687648 -119.597593 287 18289ft 350kts
29-Jul-21 20:56 34.721911 -119.714571 290 16323ft 391kts
29-Jul-21 20:57 34.760440 -119.838185 291 14358ft 357kts
29-Jul-21 20:58 34.794200 -119.945821 290 12280ft 322kts
29-Jul-21 20:59 34.823833 -120.045697 288 10513ft 334kts
29-Jul-21 21:00 34.848254 -120.142982 287 10420ft 294kts
29-Jul-21 21:01 34.861844 -120.239645 244 10349ft 298kts
29-Jul-21 21:02 34.790899 -120.246547 146 10199ft 302kts
29-Jul-21 21:03 34.718035 -120.183519 143 8843ft 335kts
29-Jul-21 21:04 34.640835 -120.146698 212 7422ft 270kts
29-Jul-21 21:05 34.595136 -120.212268 233 6015ft 244kts
29-Jul-21 21:06 34.553454 -120.280277 233 5109ft 248kts
29-Jul-21 21:07 34.536928 -120.351548 311 5078ft 227kts
29-Jul-21 21:08 34.596002 -120.364102 10 5085ft 219kts
29-Jul-21 21:09 34.661408 -120.344303 8 4090ft 276kts
29-Jul-21 21:10 34.730660 -120.333012 334 3586ft 216kts
29-Jul-21 21:11 34.776491 -120.365170 326 3383ft 179kts
29-Jul-21 21:12 34.827292 -120.400985 334 2061ft 193kts
29-Jul-21 21:13 34.863298 -120.423800 342 990ft 124kts
29-Jul-21 21:14 34.891824 -120.444587 316 311ft 113kts
29-Jul-21 21:15 34.904507 -120.460841 221 226ft 10kts
29-Jul-21 21:16 34.904012 -120.461483 9 226ft 2kts
29-Jul-21 21:17 34.904240 -120.461160 48 226ft 0kts
29-Jul-21 21:18 34.904873 -120.460376 45 226ft 21kts
29-Jul-21 21:19 34.905403 -120.458493 136 228ft 0kts
29-Jul-21 21:20 34.902759 -120.455312 136 233ft 29kts
29-Jul-21 21:21 34.896824 -120.448200 135 252ft 15kts
29-Jul-21 21:22 34.897591 -120.447236 321 252ft 0kts
29-Jul-21 21:23 34.897591 -120.447236 321 252ft 0kts

Navigation Log

Ident Type
Flight plan parsing failed, navigation log unavailable